createdAt,value
2022-08-19T00:01:54.076Z,17.24
2022-08-19T00:04:26.869Z,17.22
2022-08-19T00:06:54.571Z,17.18
2022-08-19T00:09:24.732Z,17.18
2022-08-19T00:11:53.919Z,17.19
2022-08-19T00:14:21.715Z,17.16
2022-08-19T00:16:52.196Z,17.14
2022-08-19T00:19:19.116Z,17.10
2022-08-19T00:21:46.040Z,16.99
2022-08-19T00:24:15.519Z,17.04
2022-08-19T00:26:45.007Z,17.04
2022-08-19T00:29:15.123Z,16.98
2022-08-19T00:31:43.674Z,16.96
2022-08-19T00:34:13.724Z,16.93
2022-08-19T00:36:42.226Z,16.92
2022-08-19T00:39:10.541Z,16.86
2022-08-19T00:41:37.683Z,16.87
2022-08-19T00:44:15.548Z,16.87
2022-08-19T00:46:55.621Z,16.79
2022-08-19T00:49:33.803Z,16.79
2022-08-19T00:52:15.294Z,16.69
2022-08-19T00:54:44.496Z,16.72
2022-08-19T00:57:16.508Z,16.74
2022-08-19T01:00:00.566Z,16.71
2022-08-19T01:02:32.083Z,16.63
2022-08-19T01:05:01.471Z,16.57
2022-08-19T01:07:28.644Z,16.62
2022-08-19T01:10:04.275Z,16.62
2022-08-19T01:12:31.942Z,16.57
2022-08-19T01:15:00.345Z,16.57
2022-08-19T01:17:28.516Z,16.54
2022-08-19T01:19:55.557Z,16.51
2022-08-19T01:22:31.471Z,16.46
2022-08-19T01:25:00.366Z,16.47
2022-08-19T01:27:42.945Z,16.46
2022-08-19T01:30:22.554Z,16.44
2022-08-19T01:32:51.157Z,16.43
2022-08-19T01:35:19.119Z,16.39
2022-08-19T01:37:52.779Z,16.39
2022-08-19T01:40:24.706Z,16.37
2022-08-19T01:42:52.813Z,16.32
2022-08-19T01:45:22.936Z,16.28
2022-08-19T01:48:01.271Z,16.26
2022-08-19T01:50:32.347Z,16.20
2022-08-19T01:53:06.330Z,16.22
2022-08-19T01:55:40.828Z,16.20
2022-08-19T01:58:16.210Z,16.10
2022-08-19T02:00:44.461Z,16.13
2022-08-19T02:03:12.214Z,16.13
2022-08-19T02:05:40.630Z,16.13
2022-08-19T02:08:08.457Z,16.11
2022-08-19T02:10:41.435Z,16.08
2022-08-19T02:13:08.536Z,16.07
2022-08-19T02:15:35.457Z,16.03
2022-08-19T02:18:02.368Z,16.00
2022-08-19T02:20:29.279Z,15.92
2022-08-19T02:22:56.209Z,15.94
2022-08-19T02:25:23.251Z,15.92
2022-08-19T02:27:50.246Z,15.91
2022-08-19T02:30:19.870Z,15.82
2022-08-19T02:32:46.928Z,15.84
2022-08-19T02:35:15.591Z,15.80
2022-08-19T02:38:02.799Z,15.82
2022-08-19T02:40:35.197Z,15.80
2022-08-19T02:43:04.196Z,15.80
2022-08-19T02:45:41.577Z,15.77
2022-08-19T02:48:14.946Z,15.75
2022-08-19T02:50:54.621Z,15.73
2022-08-19T02:53:24.074Z,15.70
2022-08-19T02:55:52.150Z,15.68
2022-08-19T02:58:21.280Z,15.64
2022-08-19T03:00:57.268Z,15.65
2022-08-19T03:03:24.509Z,15.65
2022-08-19T03:05:56.524Z,15.64
2022-08-19T03:08:26.346Z,15.62
2022-08-19T03:10:53.899Z,15.61
2022-08-19T03:13:21.300Z,15.59
2022-08-19T03:15:49.546Z,15.55
2022-08-19T03:18:17.869Z,15.54
2022-08-19T03:20:49.124Z,15.51
2022-08-19T03:23:17.774Z,15.50
2022-08-19T03:26:03.146Z,15.49
2022-08-19T03:28:36.348Z,15.48
2022-08-19T03:31:43.976Z,15.45
2022-08-19T03:33:55.612Z,15.44
2022-08-19T03:36:26.283Z,15.43
2022-08-19T03:39:00.065Z,15.38
2022-08-19T03:41:45.746Z,15.37
2022-08-19T03:44:23.806Z,15.37
2022-08-19T03:46:56.112Z,15.38
2022-08-19T03:49:28.247Z,15.34
2022-08-19T03:52:01.180Z,15.35
2022-08-19T03:54:29.605Z,15.33
2022-08-19T03:56:57.750Z,15.31
2022-08-19T03:59:30.007Z,15.28
2022-08-19T04:02:00.324Z,15.26
2022-08-19T04:04:28.963Z,15.25
2022-08-19T04:06:57.253Z,15.25
2022-08-19T04:09:24.331Z,15.20
2022-08-19T04:11:55.036Z,15.18
2022-08-19T04:14:29.285Z,15.19
2022-08-19T04:16:56.712Z,15.16
2022-08-19T04:19:24.372Z,15.18
2022-08-19T04:21:54.708Z,15.11
2022-08-19T04:24:22.620Z,15.12
2022-08-19T04:26:50.275Z,15.14
2022-08-19T04:29:25.701Z,15.09
2022-08-19T04:31:55.317Z,15.10
2022-08-19T04:34:25.456Z,15.10
2022-08-19T04:36:55.630Z,15.12
2022-08-19T04:39:46.750Z,15.15
2022-08-19T04:42:32.612Z,15.18
2022-08-19T04:45:00.132Z,15.20
2022-08-19T04:47:46.877Z,15.21
2022-08-19T04:50:15.179Z,15.22
2022-08-19T04:52:43.755Z,15.23
2022-08-19T04:55:13.507Z,15.28
2022-08-19T04:57:41.049Z,15.29
2022-08-19T05:00:10.424Z,15.27
2022-08-19T05:02:38.160Z,15.31
2022-08-19T05:05:07.323Z,15.32
2022-08-19T05:07:34.481Z,15.31
2022-08-19T05:10:01.752Z,15.31
2022-08-19T05:12:29.643Z,15.32
2022-08-19T05:14:58.475Z,15.35
2022-08-19T05:17:28.987Z,15.35
2022-08-19T05:20:17.197Z,15.38
2022-08-19T05:22:47.674Z,15.38
2022-08-19T05:25:20.409Z,15.39
2022-08-19T05:27:48.959Z,15.41
2022-08-19T05:30:17.168Z,15.43
2022-08-19T05:32:44.876Z,15.44
2022-08-19T05:35:12.571Z,15.45
2022-08-19T05:37:41.219Z,15.49
2022-08-19T05:40:10.596Z,15.51
2022-08-19T05:42:38.410Z,15.58
2022-08-19T05:45:07.188Z,15.63
2022-08-19T05:47:34.269Z,15.66
2022-08-19T05:50:04.814Z,15.70
2022-08-19T05:52:32.509Z,15.76
2022-08-19T05:55:00.441Z,15.81
2022-08-19T05:57:29.689Z,15.87
2022-08-19T05:59:58.804Z,15.92
2022-08-19T06:02:28.060Z,16.01
2022-08-19T06:04:55.055Z,16.09
2022-08-19T06:07:22.493Z,16.13
2022-08-19T06:09:58.843Z,16.24
2022-08-19T06:12:31.444Z,16.33
2022-08-19T06:15:00.728Z,16.37
2022-08-19T06:17:31.068Z,16.47
2022-08-19T06:19:59.381Z,16.58
2022-08-19T06:22:27.137Z,16.65
2022-08-19T06:24:55.075Z,16.81
2022-08-19T06:27:23.199Z,16.95
2022-08-19T06:29:50.601Z,17.12
2022-08-19T06:32:19.677Z,17.27
2022-08-19T06:34:47.562Z,17.56
2022-08-19T06:37:15.260Z,17.70
2022-08-19T06:39:45.068Z,18.05
2022-08-19T06:42:16.983Z,18.09
2022-08-19T06:44:49.273Z,18.37
2022-08-19T06:47:23.632Z,18.44
2022-08-19T06:50:05.367Z,18.69
2022-08-19T06:52:38.184Z,18.73
2022-08-19T06:55:06.930Z,18.82
2022-08-19T06:57:35.445Z,18.77
2022-08-19T07:00:03.491Z,18.91
2022-08-19T07:02:30.473Z,18.84
2022-08-19T07:05:06.683Z,18.70
2022-08-19T07:07:34.935Z,18.94
2022-08-19T07:10:03.940Z,18.72
2022-08-19T07:12:35.526Z,18.89
2022-08-19T07:15:06.211Z,18.92
2022-08-19T07:17:34.613Z,18.79
2022-08-19T07:20:05.393Z,18.80
2022-08-19T07:22:38.472Z,18.66
2022-08-19T07:25:08.351Z,18.73
2022-08-19T07:27:35.352Z,18.71
2022-08-19T07:30:02.742Z,18.76
2022-08-19T07:32:31.669Z,18.74
2022-08-19T07:35:01.332Z,18.88
2022-08-19T07:37:33.129Z,18.98
2022-08-19T07:40:05.780Z,18.85
2022-08-19T07:42:32.901Z,18.87
2022-08-19T07:45:00.204Z,19.10
2022-08-19T07:47:50.390Z,19.11
2022-08-19T07:50:16.891Z,19.19
2022-08-19T07:52:45.172Z,19.26
2022-08-19T07:55:41.241Z,19.31
2022-08-19T07:58:03.364Z,19.35
2022-08-19T08:00:32.023Z,19.45
2022-08-19T08:02:59.048Z,19.45
2022-08-19T08:05:45.253Z,19.46
2022-08-19T08:08:33.892Z,19.33
2022-08-19T08:11:01.445Z,19.50
2022-08-19T08:13:29.289Z,19.70
2022-08-19T08:15:57.743Z,19.70
2022-08-19T08:18:28.070Z,19.77
2022-08-19T08:20:59.151Z,19.79
2022-08-19T08:23:27.476Z,19.72
2022-08-19T08:25:58.757Z,19.89
2022-08-19T08:28:29.571Z,19.82
2022-08-19T08:30:57.994Z,19.89
2022-08-19T08:33:33.205Z,19.96
2022-08-19T08:36:07.025Z,19.85
2022-08-19T08:38:39.654Z,19.77
2022-08-19T08:41:24.120Z,19.91
2022-08-19T08:43:53.856Z,19.89
2022-08-19T08:46:43.056Z,20.08
2022-08-19T08:49:19.591Z,20.14
2022-08-19T08:52:01.955Z,20.15
2022-08-19T08:54:40.536Z,20.63
2022-08-19T08:57:30.512Z,20.83
2022-08-19T09:00:15.705Z,21.07
2022-08-19T09:02:44.018Z,21.13
2022-08-19T09:05:16.809Z,21.39
2022-08-19T09:08:01.717Z,21.47
2022-08-19T09:10:44.618Z,21.99
2022-08-19T09:13:45.618Z,22.31
2022-08-19T09:16:21.907Z,22.32
2022-08-19T09:18:59.840Z,23.05
2022-08-19T09:21:30.579Z,23.50
2022-08-19T09:24:01.064Z,23.87
2022-08-19T09:26:47.658Z,24.02
2022-08-19T09:29:19.598Z,23.91
2022-08-19T09:31:50.344Z,24.37
2022-08-19T09:34:20.807Z,24.87
2022-08-19T09:36:53.881Z,25.40
2022-08-19T09:39:21.683Z,25.70
2022-08-19T09:41:50.579Z,25.70
2022-08-19T09:44:18.197Z,26.29
2022-08-19T09:46:48.000Z,26.21
2022-08-19T09:49:16.083Z,26.26
2022-08-19T09:51:50.785Z,26.47
2022-08-19T09:54:22.468Z,26.40
2022-08-19T09:56:52.868Z,25.72
2022-08-19T09:59:19.926Z,26.41
2022-08-19T10:01:47.057Z,26.30
2022-08-19T10:04:20.424Z,26.12
2022-08-19T10:06:53.399Z,26.61
2022-08-19T10:09:33.549Z,26.86
2022-08-19T10:12:02.526Z,26.30
2022-08-19T10:14:30.527Z,27.04
2022-08-19T10:16:59.181Z,26.53
2022-08-19T10:19:26.934Z,26.06
2022-08-19T10:21:58.699Z,26.29
2022-08-19T10:24:28.702Z,25.88
2022-08-19T10:26:58.750Z,25.33
2022-08-19T10:29:32.235Z,25.65
2022-08-19T10:32:09.619Z,25.96
2022-08-19T10:34:48.510Z,25.66
2022-08-19T10:37:28.788Z,25.83
2022-08-19T10:39:58.455Z,25.91
2022-08-19T10:42:25.477Z,25.81
2022-08-19T10:44:52.466Z,26.00
2022-08-19T10:47:25.447Z,26.31
2022-08-19T10:50:17.043Z,26.43
2022-08-19T10:52:50.343Z,26.30
2022-08-19T10:55:42.139Z,26.67
2022-08-19T10:58:16.673Z,26.00
2022-08-19T11:00:44.628Z,26.22
2022-08-19T11:03:12.075Z,26.24
2022-08-19T11:05:40.445Z,26.33
2022-08-19T11:08:22.619Z,26.35
2022-08-19T11:10:57.421Z,26.27
2022-08-19T11:13:25.465Z,26.43
2022-08-19T11:16:08.493Z,26.80
2022-08-19T11:18:41.181Z,27.14
2022-08-19T11:21:13.670Z,26.66
2022-08-19T11:23:41.679Z,26.60
2022-08-19T11:26:08.707Z,27.16
2022-08-19T11:28:36.079Z,27.09
2022-08-19T11:31:04.359Z,26.74
2022-08-19T11:33:33.533Z,27.04
2022-08-19T11:36:01.686Z,26.68
2022-08-19T11:38:28.795Z,27.46
2022-08-19T11:41:01.652Z,26.99
2022-08-19T11:43:31.583Z,27.34
2022-08-19T11:46:07.774Z,27.07
2022-08-19T11:48:35.618Z,27.25
2022-08-19T11:51:09.543Z,27.22
2022-08-19T11:53:38.647Z,27.24
2022-08-19T11:56:07.962Z,26.92
2022-08-19T11:58:35.894Z,27.03
2022-08-19T12:01:07.734Z,27.22
2022-08-19T12:03:35.044Z,27.02
2022-08-19T12:06:14.147Z,27.19
2022-08-19T12:08:43.212Z,26.86
2022-08-19T12:11:12.035Z,26.78
2022-08-19T12:13:39.861Z,26.63
2022-08-19T12:16:13.211Z,26.58
2022-08-19T12:18:46.926Z,26.00
2022-08-19T12:21:29.124Z,25.76
2022-08-19T12:23:58.529Z,25.61
2022-08-19T12:26:28.360Z,25.61
2022-08-19T12:28:55.505Z,25.42
2022-08-19T12:31:22.836Z,25.15
2022-08-19T12:33:49.861Z,25.18
2022-08-19T12:36:18.718Z,25.03
2022-08-19T12:38:46.113Z,24.66
2022-08-19T12:41:18.576Z,24.34
2022-08-19T12:43:46.863Z,24.02
2022-08-19T12:46:15.159Z,24.16
2022-08-19T12:48:46.374Z,24.34
2022-08-19T12:51:18.644Z,24.20
2022-08-19T12:53:46.099Z,24.17
2022-08-19T12:56:15.609Z,24.22
2022-08-19T12:58:50.487Z,24.50
2022-08-19T13:01:22.828Z,24.56
2022-08-19T13:03:51.109Z,24.76
2022-08-19T13:06:19.402Z,24.63
2022-08-19T13:08:47.513Z,24.77
2022-08-19T13:11:21.764Z,24.67
2022-08-19T13:13:52.925Z,24.70
2022-08-19T13:16:21.192Z,24.57
2022-08-19T13:18:48.508Z,24.53
2022-08-19T13:21:16.256Z,24.45
2022-08-19T13:23:43.528Z,24.37
2022-08-19T13:26:13.644Z,24.08
2022-08-19T13:29:01.548Z,24.24
2022-08-19T13:31:50.722Z,23.92
2022-08-19T13:34:21.975Z,23.87
2022-08-19T13:36:48.909Z,23.67
2022-08-19T13:39:15.905Z,23.59
2022-08-19T13:41:49.043Z,23.54
2022-08-19T13:44:19.079Z,23.40
2022-08-19T13:46:48.368Z,23.39
2022-08-19T13:49:16.129Z,23.06
2022-08-19T13:51:46.345Z,23.08
2022-08-19T13:54:13.920Z,23.01
2022-08-19T13:56:45.732Z,23.07
2022-08-19T13:59:13.367Z,22.95
2022-08-19T14:01:42.099Z,22.51
2022-08-19T14:04:09.702Z,22.48
2022-08-19T14:06:37.209Z,22.67
2022-08-19T14:09:05.541Z,22.64
2022-08-19T14:11:32.493Z,22.69
2022-08-19T14:13:59.421Z,22.65
2022-08-19T14:16:28.057Z,22.68
2022-08-19T14:18:55.076Z,22.55
2022-08-19T14:21:25.159Z,22.56
2022-08-19T14:23:53.010Z,22.50
2022-08-19T14:26:24.035Z,22.45
2022-08-19T14:28:53.031Z,22.40
2022-08-19T14:31:21.045Z,21.98
2022-08-19T14:33:48.757Z,22.01
2022-08-19T14:36:16.320Z,22.04
2022-08-19T14:38:44.160Z,21.96
2022-08-19T14:41:20.238Z,21.74
2022-08-19T14:43:50.884Z,21.99
2022-08-19T14:46:21.988Z,22.07
2022-08-19T14:48:51.863Z,21.98
2022-08-19T14:51:22.510Z,22.03
2022-08-19T14:53:50.931Z,21.83
2022-08-19T14:56:24.236Z,22.05
2022-08-19T14:58:54.027Z,22.05
2022-08-19T15:01:23.251Z,22.21
2022-08-19T15:03:53.557Z,22.09
2022-08-19T15:06:21.936Z,22.07
2022-08-19T15:08:51.645Z,22.17
2022-08-19T15:11:23.126Z,22.32
2022-08-19T15:13:50.880Z,22.34
2022-08-19T15:16:19.020Z,22.09
2022-08-19T15:18:50.574Z,22.31
2022-08-19T15:21:26.606Z,22.20
2022-08-19T15:23:56.746Z,22.39
2022-08-19T15:26:24.039Z,22.36
2022-08-19T15:28:51.046Z,22.47
2022-08-19T15:31:28.290Z,22.56
2022-08-19T15:33:58.468Z,22.57
2022-08-19T15:36:26.900Z,22.54
2022-08-19T15:38:55.439Z,22.51
2022-08-19T15:41:30.861Z,22.68
2022-08-19T15:44:11.310Z,22.56
2022-08-19T15:46:41.969Z,22.59
2022-08-19T15:49:09.724Z,22.44
2022-08-19T15:51:39.145Z,22.54
2022-08-19T15:54:10.771Z,22.54
2022-08-19T15:56:57.826Z,22.69
2022-08-19T15:59:47.142Z,22.65
2022-08-19T16:02:37.736Z,22.71
2022-08-19T16:05:27.858Z,22.75
2022-08-19T16:07:57.119Z,22.70
2022-08-19T16:10:26.069Z,22.56
2022-08-19T16:12:56.410Z,22.67
2022-08-19T16:15:27.749Z,22.62
2022-08-19T16:17:57.074Z,22.66
2022-08-19T16:20:27.226Z,22.76
2022-08-19T16:22:56.368Z,22.71
2022-08-19T16:25:27.444Z,22.86
2022-08-19T16:28:06.346Z,22.77
2022-08-19T16:30:38.388Z,22.80
2022-08-19T16:33:06.319Z,22.87
2022-08-19T16:35:33.423Z,22.87
2022-08-19T16:38:01.233Z,22.95
2022-08-19T16:40:28.201Z,22.95
2022-08-19T16:42:55.378Z,23.08
2022-08-19T16:45:22.399Z,23.11
2022-08-19T16:47:50.430Z,23.08
2022-08-19T16:50:25.292Z,23.03
2022-08-19T16:53:00.454Z,23.06
2022-08-19T16:55:28.668Z,23.17
2022-08-19T16:57:55.840Z,23.12
2022-08-19T17:00:23.123Z,22.95
2022-08-19T17:02:50.126Z,23.09
2022-08-19T17:05:17.210Z,22.93
2022-08-19T17:07:44.539Z,22.93
2022-08-19T17:10:11.517Z,22.98
2022-08-19T17:12:38.517Z,22.68
2022-08-19T17:15:08.258Z,22.80
2022-08-19T17:17:37.184Z,22.78
2022-08-19T17:20:07.105Z,22.71
2022-08-19T17:22:36.785Z,22.70
2022-08-19T17:25:04.777Z,22.41
2022-08-19T17:27:32.586Z,22.54
2022-08-19T17:30:02.248Z,22.63
2022-08-19T17:32:29.529Z,22.51
2022-08-19T17:34:56.528Z,22.41
2022-08-19T17:37:23.522Z,22.48
2022-08-19T17:39:50.574Z,22.27
2022-08-19T17:42:17.859Z,22.15
2022-08-19T17:44:50.990Z,22.19
2022-08-19T17:47:19.343Z,22.27
2022-08-19T17:49:46.320Z,22.22
2022-08-19T17:52:13.244Z,22.19
2022-08-19T17:54:40.567Z,21.97
2022-08-19T17:57:08.371Z,22.04
2022-08-19T17:59:37.257Z,21.93
2022-08-19T18:02:06.562Z,21.94
2022-08-19T18:04:33.789Z,21.89
2022-08-19T18:07:04.079Z,21.86
2022-08-19T18:09:41.447Z,21.80
2022-08-19T18:12:12.139Z,21.75
2022-08-19T18:14:41.086Z,21.64
2022-08-19T18:17:16.443Z,21.54
2022-08-19T18:19:45.611Z,21.66
2022-08-19T18:22:27.841Z,21.57
2022-08-19T18:24:57.256Z,21.51
2022-08-19T18:27:26.948Z,21.56
2022-08-19T18:29:59.180Z,21.44
2022-08-19T18:32:35.278Z,21.39
2022-08-19T18:35:11.083Z,21.27
2022-08-19T18:37:40.232Z,21.29
2022-08-19T18:40:28.717Z,21.22
2022-08-19T18:43:11.284Z,21.20
2022-08-19T18:45:58.335Z,20.94
2022-08-19T18:49:00.850Z,21.06
2022-08-19T18:51:31.695Z,20.90
2022-08-19T18:54:01.171Z,20.93
2022-08-19T18:56:32.112Z,20.94
2022-08-19T18:59:00.949Z,20.95
2022-08-19T19:01:36.590Z,20.91
2022-08-19T19:04:10.524Z,20.85
2022-08-19T19:06:40.876Z,20.90
2022-08-19T19:09:14.188Z,20.89
2022-08-19T19:11:44.420Z,20.87
2022-08-19T19:14:27.674Z,20.83
2022-08-19T19:17:07.917Z,20.80
2022-08-19T19:19:35.327Z,20.76
2022-08-19T19:22:04.487Z,20.73
2022-08-19T19:24:33.269Z,20.66
2022-08-19T19:27:08.289Z,20.72
2022-08-19T19:29:36.639Z,20.64
2022-08-19T19:32:09.260Z,20.58
2022-08-19T19:34:38.786Z,20.53
2022-08-19T19:37:05.931Z,20.46
2022-08-19T19:39:45.419Z,20.45
2022-08-19T19:42:21.150Z,20.33
2022-08-19T19:44:51.217Z,20.29
2022-08-19T19:47:19.812Z,20.21
2022-08-19T19:52:39.142Z,20.08
2022-08-19T19:55:09.114Z,19.98
2022-08-19T19:57:37.326Z,20.00
2022-08-19T20:00:06.159Z,19.89
2022-08-19T20:02:33.075Z,19.94
2022-08-19T20:05:01.380Z,19.86
2022-08-19T20:07:46.741Z,19.92
2022-08-19T20:10:14.132Z,19.86
2022-08-19T20:12:41.042Z,19.81
2022-08-19T20:15:09.431Z,19.81
2022-08-19T20:17:42.351Z,19.76
2022-08-19T20:20:14.920Z,19.77
2022-08-19T20:22:43.320Z,19.73
2022-08-19T20:25:11.997Z,19.70
2022-08-19T20:27:40.369Z,19.69
2022-08-19T20:30:13.916Z,19.64
2022-08-19T20:32:46.869Z,19.53
2022-08-19T20:35:17.223Z,19.55
2022-08-19T20:37:44.416Z,19.52
2022-08-19T20:40:16.184Z,19.52
2022-08-19T20:42:47.484Z,19.50
2022-08-19T20:45:32.907Z,19.44
2022-08-19T20:48:02.680Z,19.46
2022-08-19T20:50:30.692Z,19.45
2022-08-19T20:52:58.233Z,19.39
2022-08-19T20:55:27.111Z,19.43
2022-08-19T20:57:55.069Z,19.42
2022-08-19T21:00:22.308Z,19.42
2022-08-19T21:02:49.260Z,19.43
2022-08-19T21:05:16.286Z,19.41
2022-08-19T21:07:43.439Z,19.45
2022-08-19T21:10:11.114Z,19.44
2022-08-19T21:12:39.276Z,19.46
2022-08-19T21:15:07.137Z,19.47
2022-08-19T21:17:34.069Z,19.45
2022-08-19T21:20:01.096Z,19.47
2022-08-19T21:22:28.177Z,19.49
2022-08-19T21:24:55.124Z,19.48
2022-08-19T21:27:22.050Z,19.47
2022-08-19T21:29:48.999Z,19.49
2022-08-19T21:32:16.247Z,19.48
2022-08-19T21:34:46.193Z,19.48
2022-08-19T21:37:17.674Z,19.49
2022-08-19T21:39:53.311Z,19.52
2022-08-19T21:42:20.385Z,19.50
2022-08-19T21:44:47.358Z,19.50
2022-08-19T21:47:14.351Z,19.51
2022-08-19T21:49:41.387Z,19.50
2022-08-19T21:52:08.628Z,19.50
2022-08-19T21:54:38.142Z,19.52
2022-08-19T21:57:10.192Z,19.52
2022-08-19T21:59:43.920Z,19.48
2022-08-19T22:02:21.834Z,19.53
2022-08-19T22:04:53.864Z,19.51
2022-08-19T22:07:22.468Z,19.51
2022-08-19T22:09:51.504Z,19.53
2022-08-19T22:12:30.177Z,19.52
2022-08-19T22:14:58.793Z,19.49
2022-08-19T22:17:27.366Z,19.50
2022-08-19T22:19:56.092Z,19.52
2022-08-19T22:22:30.720Z,19.53
2022-08-19T22:25:09.101Z,19.54
2022-08-19T22:27:36.396Z,19.56
2022-08-19T22:30:10.066Z,19.55
2022-08-19T22:32:37.243Z,19.54
2022-08-19T22:35:08.475Z,19.54
2022-08-19T22:37:35.428Z,19.53
2022-08-19T22:40:05.391Z,19.54
2022-08-19T22:42:33.189Z,19.56
2022-08-19T22:45:00.862Z,19.54
2022-08-19T22:47:30.163Z,19.53
2022-08-19T22:50:00.131Z,19.55
2022-08-19T22:52:27.735Z,19.52
2022-08-19T22:55:00.233Z,19.52
2022-08-19T22:57:27.393Z,19.54
2022-08-19T23:00:00.948Z,19.54
2022-08-19T23:02:38.396Z,19.51
2022-08-19T23:05:10.153Z,19.53
2022-08-19T23:07:38.174Z,19.52
2022-08-19T23:10:09.452Z,19.49
2022-08-19T23:12:41.172Z,19.52
2022-08-19T23:15:24.156Z,19.51
2022-08-19T23:17:56.807Z,19.50
2022-08-19T23:20:27.017Z,19.48
2022-08-19T23:22:55.767Z,19.49
2022-08-19T23:25:28.214Z,19.49
2022-08-19T23:28:14.132Z,19.50
2022-08-19T23:30:45.512Z,19.48
2022-08-19T23:33:24.369Z,19.47
2022-08-19T23:35:58.280Z,19.47
2022-08-19T23:38:28.368Z,19.48
2022-08-19T23:41:02.236Z,19.50
2022-08-19T23:43:31.198Z,19.54
2022-08-19T23:46:04.020Z,19.40
2022-08-19T23:48:37.969Z,19.48
2022-08-19T23:51:09.010Z,19.44
2022-08-19T23:53:40.879Z,19.47
2022-08-19T23:56:10.125Z,19.50
2022-08-19T23:58:38.380Z,19.52
